Time;durP1;ratioP1;P1;durP2;ratioP2;P2;SDS_P1;SDS_P2;PMS_P1;PMS_P2;Temp;Humidity;BMP_temperature;BMP_pressure;BME280_temperature;BME280_humidity;BME280_pressure;Samples;Min_cycle;Max_cycle;Signal;HPM_P1;HPM_P2
2024/01/24 00:00:32;;;;;;;25.65;12.63;;;1.90;99.90;;;;;;4903086;28;20683;-67
2024/01/24 00:02:57;;;;;;;24.80;13.93;;;2.00;99.90;;;;;;4888973;28;20038;-66
2024/01/24 00:05:23;;;;;;;27.27;13.30;;;2.20;99.90;;;;;;4918446;28;20062;-66
2024/01/24 00:07:49;;;;;;;22.45;12.15;;;2.30;99.90;;;;;;4914185;28;20751;-66
2024/01/24 00:10:15;;;;;;;20.45;11.85;;;2.30;99.90;;;;;;4915943;28;20054;-67
2024/01/24 00:12:41;;;;;;;26.02;13.48;;;2.30;99.90;;;;;;4913885;28;20059;-66
2024/01/24 00:15:07;;;;;;;21.33;10.35;;;2.40;99.90;;;;;;4917805;28;20035;-66
2024/01/24 00:17:32;;;;;;;21.58;10.50;;;2.50;99.90;;;;;;4917407;28;20046;-66
2024/01/24 00:19:58;;;;;;;22.42;10.73;;;2.50;99.90;;;;;;4929892;28;20571;-67
2024/01/24 00:22:24;;;;;;;17.65;10.02;;;2.50;99.90;;;;;;4915237;28;20162;-67
2024/01/24 00:24:49;;;;;;;24.48;11.65;;;2.60;99.90;;;;;;4923807;28;20392;-67
2024/01/24 00:27:15;;;;;;;18.40;10.07;;;2.60;99.90;;;;;;4921702;28;20132;-68
2024/01/24 00:29:40;;;;;;;17.80;9.40;;;2.60;99.90;;;;;;4919870;28;20039;-68
2024/01/24 00:32:06;;;;;;;18.10;9.68;;;2.60;99.90;;;;;;4922054;28;20512;-67
2024/01/24 00:34:31;;;;;;;19.17;9.80;;;2.50;99.90;;;;;;4917951;28;20039;-66
2024/01/24 00:36:57;;;;;;;16.95;8.98;;;2.50;99.90;;;;;;4915435;28;20959;-67
2024/01/24 00:39:22;;;;;;;19.00;10.00;;;2.30;99.90;;;;;;4913131;28;20031;-67
2024/01/24 00:41:48;;;;;;;18.83;9.52;;;2.10;99.90;;;;;;4915834;28;20094;-67
2024/01/24 00:44:14;;;;;;;21.20;9.80;;;2.10;99.90;;;;;;4916045;28;20035;-66
2024/01/24 00:46:41;;;;;;;21.23;9.75;;;2.00;99.90;;;;;;4915091;28;20032;-67
2024/01/24 00:49:11;;;;;;;19.58;10.05;;;2.00;99.90;;;;;;4919292;28;20036;-66
2024/01/24 00:51:37;;;;;;;21.65;10.75;;;2.00;99.90;;;;;;4918454;28;20356;-67
2024/01/24 00:54:03;;;;;;;21.55;10.45;;;2.10;99.90;;;;;;4916425;28;20031;-67
2024/01/24 00:56:29;;;;;;;18.45;9.88;;;2.10;99.90;;;;;;4917927;28;20045;-66
2024/01/24 00:58:55;;;;;;;18.10;10.20;;;2.00;99.90;;;;;;4919797;28;20035;-66
2024/01/24 01:01:20;;;;;;;17.80;9.55;;;1.80;99.90;;;;;;4920102;28;20054;-66
2024/01/24 01:03:46;;;;;;;21.95;10.50;;;1.80;99.90;;;;;;4919494;28;20054;-66
2024/01/24 01:06:12;;;;;;;25.40;12.15;;;1.80;99.90;;;;;;4918432;28;20066;-66
2024/01/24 01:08:37;;;;;;;22.75;11.90;;;1.90;99.90;;;;;;4917895;28;20739;-67
2024/01/24 01:11:05;;;;;;;21.27;11.40;;;2.00;99.90;;;;;;4918442;28;20373;-66
2024/01/24 01:13:32;;;;;;;22.83;12.23;;;2.10;99.90;;;;;;4917937;28;20097;-67
2024/01/24 01:15:58;;;;;;;19.55;11.27;;;2.20;99.90;;;;;;4919637;28;20035;-67
2024/01/24 01:18:23;;;;;;;21.75;10.90;;;2.30;99.90;;;;;;4920212;28;20583;-67
2024/01/24 01:20:49;;;;;;;18.98;10.60;;;2.40;99.90;;;;;;4920856;28;20035;-66
2024/01/24 01:23:14;;;;;;;22.25;10.43;;;2.50;99.90;;;;;;4922300;28;20171;-67
2024/01/24 01:25:40;;;;;;;20.58;10.02;;;2.50;99.90;;;;;;4915902;28;20152;-67
2024/01/24 01:28:06;;;;;;;20.70;10.57;;;2.60;99.90;;;;;;4913032;28;20489;-67
2024/01/24 01:30:32;;;;;;;20.55;10.38;;;2.60;99.90;;;;;;4917980;28;20141;-67
2024/01/24 01:32:57;;;;;;;19.85;10.45;;;2.70;99.90;;;;;;4914281;28;20482;-67
2024/01/24 01:35:23;;;;;;;19.55;10.50;;;2.70;99.90;;;;;;4934725;28;20660;-66
2024/01/24 01:37:48;;;;;;;18.40;10.10;;;2.70;99.90;;;;;;4916118;28;20309;-67
2024/01/24 01:40:14;;;;;;;20.20;11.00;;;2.70;99.90;;;;;;4916441;28;20115;-67
2024/01/24 01:42:44;;;;;;;14.48;9.95;;;2.70;99.90;;;;;;4920932;28;20580;-67
2024/01/24 01:45:10;;;;;;;23.63;11.38;;;2.70;99.90;;;;;;4920359;28;20019;-67
2024/01/24 01:47:36;;;;;;;21.58;10.48;;;2.70;99.90;;;;;;4923521;28;20511;-67
2024/01/24 01:50:03;;;;;;;18.50;10.10;;;2.40;99.90;;;;;;4916732;28;20173;-67
2024/01/24 01:52:30;;;;;;;22.05;10.57;;;2.30;99.90;;;;;;4924763;28;20114;-67
2024/01/24 01:54:56;;;;;;;21.17;11.13;;;2.20;99.90;;;;;;4921913;28;20054;-67
2024/01/24 01:57:22;;;;;;;18.13;9.82;;;2.20;99.90;;;;;;4923164;28;20452;-67
2024/01/24 01:59:47;;;;;;;17.58;9.52;;;2.10;99.90;;;;;;4916560;28;20067;-67
2024/01/24 02:02:13;;;;;;;20.67;11.00;;;1.90;99.90;;;;;;4925417;28;20149;-68
2024/01/24 02:04:39;;;;;;;18.67;10.27;;;1.90;99.90;;;;;;4924591;28;20088;-68
2024/01/24 02:07:05;;;;;;;21.25;10.55;;;2.00;99.90;;;;;;4919898;28;21303;-66
2024/01/24 02:09:31;;;;;;;21.38;10.52;;;2.00;99.90;;;;;;4924542;28;20424;-67
2024/01/24 02:11:57;;;;;;;22.10;12.68;;;2.00;99.90;;;;;;4923771;28;20028;-67
2024/01/24 02:14:23;;;;;;;24.67;12.10;;;2.00;99.90;;;;;;4901838;28;20121;-67
2024/01/24 02:16:48;;;;;;;21.80;10.77;;;2.10;99.90;;;;;;4925308;28;20420;-66
2024/01/24 02:19:14;;;;;;;22.17;10.85;;;1.80;99.90;;;;;;4926401;28;20097;-67
2024/01/24 02:21:39;;;;;;;21.95;10.27;;;1.40;99.90;;;;;;4926961;28;20047;-66
2024/01/24 02:24:12;;;;;;;20.90;10.93;;;1.20;99.90;;;;;;4919497;28;20484;-67
2024/01/24 02:26:38;;;;;;;14.57;8.27;;;1.30;99.90;;;;;;4923251;28;20139;-67
2024/01/24 02:29:04;;;;;;;16.48;9.63;;;1.30;99.90;;;;;;4921389;28;20504;-68
2024/01/24 02:31:30;;;;;;;17.52;8.57;;;1.30;99.90;;;;;;4920539;28;20035;-68
2024/01/24 02:33:55;;;;;;;15.90;8.35;;;1.40;99.90;;;;;;4923275;28;20030;-66
2024/01/24 02:36:21;;;;;;;21.35;9.98;;;1.40;99.90;;;;;;4922483;28;20515;-66
2024/01/24 02:38:47;;;;;;;22.08;10.57;;;1.40;99.90;;;;;;4926730;28;20362;-67
2024/01/24 02:41:12;;;;;;;20.55;10.10;;;1.50;99.90;;;;;;4922572;28;20045;-67
2024/01/24 02:43:38;;;;;;;19.73;9.05;;;1.50;99.90;;;;;;4922798;28;20957;-67
2024/01/24 02:46:04;;;;;;;15.88;8.77;;;1.30;99.90;;;;;;4924458;28;20113;-67
2024/01/24 02:48:30;;;;;;;19.33;9.45;;;1.10;99.90;;;;;;4917772;28;20283;-67
2024/01/24 02:50:55;;;;;;;13.82;8.30;;;1.20;99.90;;;;;;4921759;28;20655;-66
2024/01/24 02:53:21;;;;;;;12.30;7.13;;;1.20;99.90;;;;;;4922191;28;20031;-66
2024/01/24 02:55:47;;;;;;;17.67;7.78;;;1.30;99.90;;;;;;4921751;28;20031;-66
2024/01/24 02:58:12;;;;;;;19.08;8.57;;;1.30;99.90;;;;;;4919462;28;20067;-67
2024/01/24 03:00:38;;;;;;;11.82;6.82;;;1.30;99.90;;;;;;4920944;28;20446;-66
2024/01/24 03:03:04;;;;;;;13.52;7.07;;;1.40;99.90;;;;;;4926628;28;20137;-66
2024/01/24 03:05:30;;;;;;;16.08;7.68;;;1.50;99.90;;;;;;4922351;28;20035;-67
2024/01/24 03:07:59;;;;;;;13.50;6.97;;;1.60;99.90;;;;;;4918174;28;20536;-67
2024/01/24 03:10:27;;;;;;;13.90;7.85;;;1.70;99.90;;;;;;4922101;28;20027;-67
2024/01/24 03:12:53;;;;;;;15.68;7.32;;;1.80;99.90;;;;;;4908085;29;20028;-67
2024/01/24 03:15:19;;;;;;;17.05;7.93;;;1.70;99.90;;;;;;4900174;28;20051;-67
2024/01/24 03:17:45;;;;;;;15.95;8.60;;;1.70;99.90;;;;;;4909905;28;20038;-67
2024/01/24 03:20:13;;;;;;;18.33;11.20;;;1.50;99.90;;;;;;4921066;28;20046;-67
2024/01/24 03:22:39;;;;;;;18.67;10.73;;;1.20;99.90;;;;;;4922993;28;20272;-67
2024/01/24 03:25:06;;;;;;;20.90;11.20;;;1.00;99.90;;;;;;4920361;28;20135;-67
2024/01/24 03:27:32;;;;;;;24.17;11.52;;;0.90;99.90;;;;;;4918070;28;20123;-67
2024/01/24 03:29:57;;;;;;;19.95;9.73;;;0.80;99.90;;;;;;4921781;28;20032;-67
2024/01/24 03:32:23;;;;;;;13.38;7.95;;;0.80;99.90;;;;;;4917272;28;20335;-67
2024/01/24 03:34:55;;;;;;;20.08;9.07;;;0.80;99.90;;;;;;4922706;28;20747;-67
2024/01/24 03:37:21;;;;;;;14.27;7.90;;;0.80;99.90;;;;;;4918542;28;20031;-67
2024/01/24 03:39:47;;;;;;;15.05;8.85;;;0.70;99.90;;;;;;4922758;28;20027;-67
2024/01/24 03:42:12;;;;;;;19.52;10.02;;;0.90;99.90;;;;;;4903228;28;20114;-67
2024/01/24 03:44:38;;;;;;;15.20;9.73;;;1.00;99.90;;;;;;4920167;28;20035;-67
2024/01/24 03:47:04;;;;;;;18.08;8.95;;;1.10;99.90;;;;;;4920730;28;20138;-67
2024/01/24 03:49:29;;;;;;;20.63;9.35;;;1.20;99.90;;;;;;4920825;28;20034;-67
2024/01/24 03:51:55;;;;;;;17.05;7.22;;;1.20;99.90;;;;;;4917480;28;20063;-67
2024/01/24 03:54:22;;;;;;;18.80;8.77;;;1.20;99.90;;;;;;4921041;28;20023;-67
2024/01/24 03:56:48;;;;;;;16.10;8.35;;;1.30;99.90;;;;;;4921488;28;20110;-66
2024/01/24 03:59:14;;;;;;;15.35;8.52;;;1.30;99.90;;;;;;4916452;28;20039;-67
2024/01/24 04:01:39;;;;;;;15.68;8.95;;;1.30;99.90;;;;;;4919955;28;20054;-67
2024/01/24 04:04:05;;;;;;;15.75;8.38;;;1.30;99.90;;;;;;4919115;28;20150;-68
2024/01/24 04:06:30;;;;;;;14.48;7.97;;;1.30;99.90;;;;;;4914929;28;20100;-67
2024/01/24 04:08:56;;;;;;;16.70;8.57;;;1.30;99.90;;;;;;4919443;28;20451;-67
2024/01/24 04:11:22;;;;;;;15.23;8.00;;;1.30;99.90;;;;;;4918868;28;20035;-68
2024/01/24 04:13:52;;;;;;;16.85;9.50;;;1.30;99.90;;;;;;4907923;28;20523;-68
2024/01/24 04:16:18;;;;;;;19.00;8.90;;;1.20;99.90;;;;;;4916852;28;20023;-66
2024/01/24 04:18:44;;;;;;;17.38;8.98;;;1.20;99.90;;;;;;4918928;28;20043;-66
2024/01/24 04:21:09;;;;;;;14.02;7.95;;;1.20;99.90;;;;;;4924249;28;20036;-66
2024/01/24 04:23:35;;;;;;;15.15;8.18;;;1.30;99.90;;;;;;4924336;28;20042;-67
2024/01/24 04:26:04;;;;;;;17.55;8.10;;;1.30;99.90;;;;;;4923699;28;20023;-66
2024/01/24 04:28:30;;;;;;;14.73;8.50;;;1.40;99.90;;;;;;4917249;28;20035;-67
2024/01/24 04:30:56;;;;;;;18.40;9.02;;;1.40;99.90;;;;;;4924858;28;20055;-67
2024/01/24 04:33:21;;;;;;;22.13;9.73;;;1.50;99.90;;;;;;4920885;28;20078;-67
2024/01/24 04:35:47;;;;;;;22.98;10.23;;;1.60;99.90;;;;;;4926383;28;20168;-67
2024/01/24 04:38:12;;;;;;;21.25;10.63;;;1.60;99.90;;;;;;4922951;28;20945;-67
2024/01/24 04:40:38;;;;;;;22.98;11.02;;;1.60;99.90;;;;;;4924009;28;20090;-67
2024/01/24 04:43:04;;;;;;;21.08;10.18;;;1.70;99.90;;;;;;4924324;28;20075;-67
2024/01/24 04:45:29;;;;;;;21.52;11.63;;;1.80;99.90;;;;;;4921986;28;20039;-67
2024/01/24 04:50:23;;;;;;;21.25;10.13;;;1.70;99.90;;;;;;4948318;28;20415;-70
2024/01/24 04:52:49;;;;;;;21.17;10.65;;;1.70;99.90;;;;;;4982449;28;20049;-70
2024/01/24 04:55:15;;;;;;;20.33;10.98;;;1.80;99.90;;;;;;4986885;28;20035;-69
2024/01/24 04:57:41;;;;;;;20.83;11.13;;;1.80;99.90;;;;;;4986783;28;20521;-69
2024/01/24 05:00:08;;;;;;;23.35;10.73;;;1.80;99.90;;;;;;4972115;28;20079;-68
2024/01/24 05:02:33;;;;;;;26.63;12.55;;;1.90;99.90;;;;;;4978624;28;20152;-71
2024/01/24 05:04:59;;;;;;;20.58;11.50;;;2.00;99.90;;;;;;4971891;28;20032;-72
2024/01/24 05:07:25;;;;;;;22.83;11.43;;;2.00;99.90;;;;;;4980804;28;20045;-77
2024/01/24 05:09:50;;;;;;;18.90;10.85;;;2.10;99.90;;;;;;4980541;28;20529;-78
2024/01/24 05:12:16;;;;;;;24.30;11.15;;;2.10;99.90;;;;;;4989971;28;20148;-77
2024/01/24 05:14:42;;;;;;;19.58;10.38;;;2.20;99.90;;;;;;4990333;28;20490;-77
2024/01/24 05:17:08;;;;;;;22.15;12.13;;;2.20;99.90;;;;;;4982922;28;20018;-78
2024/01/24 05:19:35;;;;;;;25.70;13.43;;;2.20;99.90;;;;;;4985858;28;20041;-77
2024/01/24 05:22:00;;;;;;;60.35;34.55;;;2.40;99.90;;;;;;4980371;28;20065;-78
2024/01/24 05:24:26;;;;;;;25.40;14.57;;;2.50;99.90;;;;;;4993552;28;20168;-79
2024/01/24 05:26:52;;;;;;;27.35;14.32;;;2.50;99.90;;;;;;4987864;28;20045;-77
2024/01/24 05:29:18;;;;;;;23.15;12.02;;;2.60;99.90;;;;;;4988743;28;20036;-78
2024/01/24 05:31:43;;;;;;;18.30;12.13;;;2.70;99.90;;;;;;4986995;28;20030;-77
2024/01/24 05:34:09;;;;;;;20.30;12.18;;;2.70;99.90;;;;;;4983219;28;20025;-76
2024/01/24 05:36:35;;;;;;;20.05;11.57;;;2.60;99.90;;;;;;4966223;28;20051;-75
2024/01/24 05:39:02;;;;;;;23.23;13.25;;;2.60;99.90;;;;;;4984265;28;20021;-74
2024/01/24 05:41:28;;;;;;;24.05;13.48;;;2.80;99.90;;;;;;4983499;28;20990;-70
2024/01/24 05:43:53;;;;;;;22.83;12.00;;;2.70;99.90;;;;;;4986242;28;20493;-70
2024/01/24 05:46:19;;;;;;;27.25;14.75;;;2.50;99.90;;;;;;4983328;28;20104;-70
2024/01/24 05:48:45;;;;;;;27.55;15.10;;;2.60;99.90;;;;;;4984618;28;20058;-69
2024/01/24 05:51:11;;;;;;;23.17;13.88;;;2.70;99.90;;;;;;4982801;28;20030;-70
2024/01/24 05:53:40;;;;;;;21.45;12.07;;;2.80;99.90;;;;;;4979278;28;20699;-70
2024/01/24 05:56:06;;;;;;;20.00;11.57;;;2.90;99.90;;;;;;4990836;28;20626;-70
2024/01/24 05:58:32;;;;;;;21.15;11.65;;;2.80;99.90;;;;;;4986834;28;20030;-70
2024/01/24 06:00:57;;;;;;;18.50;10.48;;;2.80;99.90;;;;;;4984840;28;20037;-73
2024/01/24 06:03:23;;;;;;;18.33;10.13;;;2.70;99.90;;;;;;4980562;28;20088;-74
2024/01/24 06:05:49;;;;;;;21.10;11.13;;;2.60;99.90;;;;;;4978259;28;23827;-74
2024/01/24 06:08:15;;;;;;;16.77;9.32;;;2.50;99.90;;;;;;4972886;28;20029;-75
2024/01/24 06:10:40;;;;;;;17.52;10.68;;;2.50;99.90;;;;;;4978118;28;20653;-73
2024/01/24 06:13:06;;;;;;;13.63;8.48;;;2.50;99.90;;;;;;4979730;28;20521;-74
2024/01/24 06:15:31;;;;;;;12.02;7.35;;;2.50;99.90;;;;;;4979171;28;20030;-75
2024/01/24 06:17:57;;;;;;;18.67;8.40;;;2.50;99.90;;;;;;4980583;28;20029;-74
2024/01/24 06:20:22;;;;;;;12.95;6.63;;;2.60;99.90;;;;;;4975681;28;20803;-74
2024/01/24 06:22:48;;;;;;;14.52;7.78;;;2.70;99.90;;;;;;4964274;28;20036;-74
2024/01/24 06:25:14;;;;;;;13.65;7.90;;;2.90;99.90;;;;;;4975620;28;20261;-74
2024/01/24 06:27:41;;;;;;;15.57;8.07;;;2.90;99.90;;;;;;4976781;28;20127;-74
2024/01/24 06:30:09;;;;;;;15.10;8.35;;;3.00;99.90;;;;;;4978459;28;20033;-75
2024/01/24 06:32:35;;;;;;;16.35;9.90;;;2.80;99.90;;;;;;4972711;28;20031;-75
2024/01/24 06:35:01;;;;;;;16.95;9.07;;;2.80;99.90;;;;;;4977851;28;20033;-76
2024/01/24 06:37:26;;;;;;;16.95;10.30;;;2.80;99.90;;;;;;4970921;28;20145;-75
2024/01/24 06:39:52;;;;;;;21.83;11.90;;;2.70;99.90;;;;;;4970350;28;20483;-70
2024/01/24 06:42:17;;;;;;;30.90;17.77;;;2.60;99.90;;;;;;4978612;28;20042;-70
2024/01/24 06:44:43;;;;;;;20.23;11.40;;;2.50;99.90;;;;;;4978654;28;20092;-70
2024/01/24 06:47:08;;;;;;;23.73;11.10;;;2.40;99.90;;;;;;4980946;28;20108;-70
2024/01/24 06:49:34;;;;;;;22.17;11.15;;;2.40;99.90;;;;;;4980866;28;20056;-70
2024/01/24 06:52:00;;;;;;;19.25;11.00;;;2.40;99.90;;;;;;4957979;28;20391;-70
2024/01/24 06:54:25;;;;;;;18.90;10.20;;;2.30;99.90;;;;;;4966801;28;20037;-69
2024/01/24 06:56:51;;;;;;;18.08;9.75;;;2.30;99.90;;;;;;4987613;28;20509;-69
2024/01/24 06:59:17;;;;;;;17.63;9.60;;;2.30;99.90;;;;;;4981544;28;20814;-69
2024/01/24 07:01:43;;;;;;;20.08;10.43;;;2.30;99.90;;;;;;4980839;28;20124;-69
2024/01/24 07:04:10;;;;;;;17.95;10.25;;;2.30;99.90;;;;;;4962155;28;20584;-70
2024/01/24 07:06:35;;;;;;;17.98;10.40;;;2.30;99.90;;;;;;4982512;28;20031;-69
2024/01/24 07:09:01;;;;;;;17.38;9.45;;;2.30;99.90;;;;;;4986923;28;20033;-69
2024/01/24 07:11:27;;;;;;;17.50;9.68;;;2.40;99.90;;;;;;4969394;28;20040;-69
2024/01/24 07:13:53;;;;;;;18.13;9.50;;;2.30;99.90;;;;;;4980926;28;20481;-75
2024/01/24 07:16:19;;;;;;;16.55;9.35;;;2.40;99.90;;;;;;4985553;28;20029;-75
2024/01/24 07:18:44;;;;;;;22.48;10.35;;;2.30;99.90;;;;;;4987578;28;20672;-76
2024/01/24 07:21:10;;;;;;;29.38;9.85;;;2.20;99.90;;;;;;4982860;28;20030;-73
2024/01/24 07:23:36;;;;;;;17.83;9.65;;;2.20;99.90;;;;;;4987014;28;20029;-75
2024/01/24 07:26:02;;;;;;;31.33;11.07;;;2.20;99.90;;;;;;4989109;28;20107;-76
2024/01/24 07:28:29;;;;;;;22.25;10.20;;;2.20;99.90;;;;;;4983245;28;20042;-75
2024/01/24 07:30:55;;;;;;;28.75;9.60;;;2.20;99.90;;;;;;4986371;28;20141;-77
2024/01/24 07:33:21;;;;;;;19.42;9.65;;;2.30;99.90;;;;;;4980543;28;20062;-69
2024/01/24 07:35:47;;;;;;;17.80;9.05;;;2.40;99.90;;;;;;4982486;28;20061;-69
2024/01/24 07:38:13;;;;;;;15.15;9.32;;;2.30;99.90;;;;;;4978494;28;20109;-68
2024/01/24 07:40:38;;;;;;;16.33;9.10;;;2.30;99.90;;;;;;4982013;28;20042;-69
2024/01/24 07:43:04;;;;;;;17.30;9.13;;;2.30;99.90;;;;;;4977187;28;20029;-69
2024/01/24 07:45:30;;;;;;;17.27;9.80;;;2.30;99.90;;;;;;4979265;28;20030;-69
2024/01/24 07:47:55;;;;;;;19.15;9.65;;;2.30;99.90;;;;;;4980523;28;20083;-68
2024/01/24 07:50:21;;;;;;;16.98;9.35;;;2.30;99.90;;;;;;4980312;28;20516;-69
2024/01/24 07:52:47;;;;;;;19.52;9.13;;;2.40;99.90;;;;;;4984688;28;20237;-75
2024/01/24 07:55:13;;;;;;;18.95;10.40;;;2.40;99.90;;;;;;4986194;28;20025;-74
2024/01/24 07:57:40;;;;;;;23.73;11.57;;;2.40;99.90;;;;;;4982907;28;20038;-74
2024/01/24 08:00:06;;;;;;;17.88;10.20;;;2.50;99.90;;;;;;4985253;28;20493;-76
2024/01/24 08:02:32;;;;;;;15.20;8.43;;;2.50;99.90;;;;;;4977711;28;20075;-73
2024/01/24 08:04:57;;;;;;;14.27;8.23;;;2.50;99.90;;;;;;4976894;28;20026;-71
2024/01/24 08:07:24;;;;;;;14.60;8.27;;;2.50;99.90;;;;;;4982059;28;21084;-73
2024/01/24 08:09:49;;;;;;;12.38;7.45;;;2.50;99.90;;;;;;4984503;28;20026;-74
2024/01/24 08:12:15;;;;;;;18.55;8.88;;;2.40;99.90;;;;;;4977903;28;20116;-73
2024/01/24 08:14:41;;;;;;;20.70;11.27;;;2.40;99.90;;;;;;4982239;28;21380;-72
2024/01/24 08:17:08;;;;;;;17.77;10.25;;;2.30;99.90;;;;;;4978139;28;20034;-73
2024/01/24 08:19:34;;;;;;;19.75;11.82;;;2.30;99.90;;;;;;4981883;28;20050;-75
2024/01/24 08:22:01;;;;;;;15.93;8.50;;;2.40;99.90;;;;;;4977083;28;20428;-72
2024/01/24 08:24:27;;;;;;;15.60;9.88;;;2.30;99.90;;;;;;4977744;28;20487;-74
2024/01/24 08:26:52;;;;;;;16.27;8.65;;;2.40;99.90;;;;;;4983226;28;20111;-74
2024/01/24 08:29:19;;;;;;;15.18;8.10;;;2.40;99.90;;;;;;4982878;28;20509;-74
2024/01/24 08:31:45;;;;;;;14.82;8.45;;;2.30;99.90;;;;;;4984275;28;20358;-74
2024/01/24 08:34:11;;;;;;;22.27;13.25;;;2.30;99.90;;;;;;4984382;28;20119;-75
2024/01/24 08:36:37;;;;;;;15.32;8.73;;;2.40;99.90;;;;;;4980907;28;20037;-74
2024/01/24 08:39:03;;;;;;;14.85;8.18;;;2.40;99.90;;;;;;4980095;28;20369;-74
2024/01/24 08:41:29;;;;;;;17.55;8.23;;;2.50;99.90;;;;;;4979396;28;20399;-75
2024/01/24 08:43:57;;;;;;;13.52;7.47;;;2.60;99.90;;;;;;4981330;28;20026;-75
2024/01/24 08:46:23;;;;;;;11.88;7.47;;;2.60;99.90;;;;;;4983687;28;20100;-73
2024/01/24 08:48:49;;;;;;;14.75;7.90;;;2.60;99.90;;;;;;4983727;28;20046;-75
2024/01/24 08:51:14;;;;;;;16.13;9.32;;;2.60;99.90;;;;;;4974643;28;20422;-74
2024/01/24 08:53:40;;;;;;;13.93;8.85;;;2.60;99.90;;;;;;4982091;28;20402;-75
2024/01/24 08:56:09;;;;;;;12.27;7.60;;;2.60;99.90;;;;;;4981090;28;20080;-75
2024/01/24 08:58:36;;;;;;;13.05;8.10;;;2.70;99.90;;;;;;4975594;28;20034;-75
2024/01/24 09:01:02;;;;;;;16.08;8.80;;;2.70;99.90;;;;;;4978882;28;20047;-74
2024/01/24 09:03:28;;;;;;;19.70;11.02;;;2.70;99.90;;;;;;4980523;28;20034;-75
2024/01/24 09:05:53;;;;;;;20.02;8.60;;;2.70;99.90;;;;;;4979763;28;20018;-68
2024/01/24 09:08:19;;;;;;;19.45;9.05;;;2.60;99.90;;;;;;4986833;28;20032;-68
2024/01/24 09:10:45;;;;;;;16.10;9.38;;;2.60;99.90;;;;;;4980980;28;20270;-68
2024/01/24 09:13:10;;;;;;;14.85;8.57;;;2.60;99.90;;;;;;4986672;28;20418;-69
2024/01/24 09:15:36;;;;;;;14.07;8.85;;;2.60;99.90;;;;;;4984961;28;20379;-68
2024/01/24 09:18:02;;;;;;;12.88;8.13;;;2.60;99.90;;;;;;4984241;28;20113;-68
2024/01/24 09:20:27;;;;;;;13.27;7.78;;;2.60;99.90;;;;;;4979123;28;20369;-68
2024/01/24 09:22:53;;;;;;;12.00;8.18;;;2.70;99.90;;;;;;4982853;28;20048;-68
2024/01/24 09:25:19;;;;;;;11.98;7.10;;;2.70;99.90;;;;;;4989710;28;20041;-74
2024/01/24 09:27:45;;;;;;;11.27;6.90;;;2.70;99.90;;;;;;4987598;28;20038;-74
2024/01/24 09:30:11;;;;;;;13.75;8.35;;;2.70;99.90;;;;;;4982864;28;20117;-74
2024/01/24 09:32:37;;;;;;;13.38;8.57;;;2.80;99.90;;;;;;4967752;28;20033;-72
2024/01/24 09:35:03;;;;;;;12.93;8.07;;;2.90;99.90;;;;;;4977657;28;20034;-73
2024/01/24 09:37:29;;;;;;;14.15;8.23;;;2.90;99.90;;;;;;4985778;28;20819;-74
2024/01/24 09:39:56;;;;;;;12.40;9.18;;;3.00;99.90;;;;;;4989975;28;20047;-73
2024/01/24 09:42:25;;;;;;;12.20;8.18;;;3.00;99.90;;;;;;4972151;28;20045;-75
2024/01/24 09:44:51;;;;;;;38.63;22.90;;;3.00;99.90;;;;;;4983000;28;20054;-74
2024/01/24 09:47:19;;;;;;;12.95;8.15;;;3.10;99.90;;;;;;4980541;28;20108;-73
2024/01/24 09:49:46;;;;;;;12.07;6.72;;;3.10;99.90;;;;;;4987153;28;20050;-73
2024/01/24 09:52:18;;;;;;;12.18;7.07;;;3.20;99.90;;;;;;4986517;28;20100;-73
2024/01/24 09:54:44;;;;;;;8.80;6.60;;;3.20;99.90;;;;;;4986018;28;20386;-73
2024/01/24 09:57:11;;;;;;;11.95;7.78;;;3.30;99.90;;;;;;4988015;28;20388;-73
2024/01/24 09:59:36;;;;;;;10.10;6.75;;;3.40;99.90;;;;;;4986990;28;20113;-74
2024/01/24 10:02:05;;;;;;;12.25;7.13;;;3.40;99.90;;;;;;4961774;28;20737;-68
2024/01/24 10:04:36;;;;;;;11.20;6.95;;;3.50;99.90;;;;;;4983684;28;20381;-68
2024/01/24 10:07:12;;;;;;;15.07;8.50;;;3.50;99.90;;;;;;4984157;28;20029;-68
2024/01/24 10:09:38;;;;;;;10.10;8.18;;;3.60;99.90;;;;;;4980595;28;20038;-68
2024/01/24 10:12:04;;;;;;;14.20;7.53;;;3.60;99.90;;;;;;4986664;28;20379;-68
2024/01/24 10:14:30;;;;;;;13.10;7.40;;;3.60;99.90;;;;;;4974512;28;20072;-68
2024/01/24 10:16:57;;;;;;;10.35;7.18;;;3.60;99.90;;;;;;4985163;28;20113;-68
2024/01/24 10:19:24;;;;;;;10.52;7.05;;;3.70;99.90;;;;;;4982312;28;20034;-68
2024/01/24 10:21:51;;;;;;;11.07;6.82;;;3.70;99.90;;;;;;4982245;28;20401;-68
2024/01/24 10:24:16;;;;;;;11.63;6.28;;;3.70;99.90;;;;;;4978419;28;20022;-68
2024/01/24 10:26:46;;;;;;;8.38;5.70;;;3.70;99.90;;;;;;4985412;28;20078;-69
2024/01/24 10:29:11;;;;;;;8.35;5.82;;;3.80;99.90;;;;;;4982468;28;20030;-68
2024/01/24 10:31:37;;;;;;;9.07;5.68;;;3.90;99.90;;;;;;4984854;28;20038;-69
2024/01/24 10:34:04;;;;;;;11.70;6.65;;;4.00;99.90;;;;;;4978462;28;20274;-69
2024/01/24 10:36:30;;;;;;;19.20;12.65;;;4.00;99.90;;;;;;4986023;28;20050;-69
2024/01/24 10:39:05;;;;;;;9.52;6.03;;;4.00;99.90;;;;;;4984212;28;20477;-69
2024/01/24 10:41:35;;;;;;;8.95;5.75;;;4.00;99.90;;;;;;4979176;28;20733;-68
2024/01/24 10:44:14;;;;;;;19.17;12.32;;;4.10;99.90;;;;;;4976853;28;20296;-69
2024/01/24 10:46:40;;;;;;;12.07;7.00;;;4.10;99.90;;;;;;4987415;28;20085;-69
2024/01/24 10:49:07;;;;;;;10.90;6.72;;;4.10;99.90;;;;;;4983945;28;20158;-69
2024/01/24 10:51:33;;;;;;;12.52;9.88;;;4.10;99.90;;;;;;4983621;28;20035;-69
2024/01/24 10:53:59;;;;;;;19.73;13.77;;;4.10;99.90;;;;;;4982090;28;20022;-69
2024/01/24 10:56:27;;;;;;;9.88;5.72;;;4.20;99.90;;;;;;4983952;28;20496;-68
2024/01/24 10:58:55;;;;;;;9.65;5.82;;;4.20;99.90;;;;;;4979400;28;20033;-69
2024/01/24 11:01:20;;;;;;;9.23;7.75;;;4.20;99.90;;;;;;4978407;28;20036;-69
2024/01/24 11:03:49;;;;;;;8.70;6.65;;;4.20;99.90;;;;;;4985441;28;20030;-68
2024/01/24 11:06:17;;;;;;;7.50;5.38;;;4.20;99.90;;;;;;4976792;28;20348;-68
2024/01/24 11:09:03;;;;;;;10.13;6.18;;;4.20;99.90;;;;;;4980147;28;20056;-69
2024/01/24 11:11:33;;;;;;;9.90;6.47;;;4.20;99.90;;;;;;4963621;28;20109;-68
2024/01/24 11:13:59;;;;;;;21.73;12.63;;;4.30;99.90;;;;;;4983350;28;20034;-68
2024/01/24 11:16:29;;;;;;;27.67;12.40;;;4.30;99.90;;;;;;4986928;28;20021;-69
2024/01/24 11:19:17;;;;;;;25.75;13.77;;;4.50;99.90;;;;;;4979576;28;20044;-69
2024/01/24 11:21:42;;;;;;;69.20;36.88;;;4.50;99.90;;;;;;4974562;28;20453;-69
2024/01/24 11:24:08;;;;;;;21.95;12.68;;;4.60;99.90;;;;;;4976843;28;20365;-69
2024/01/24 11:26:37;;;;;;;21.48;14.55;;;4.80;99.90;;;;;;4982964;28;20822;-69
2024/01/24 11:29:12;;;;;;;43.85;26.00;;;4.80;99.90;;;;;;4980561;28;20026;-68
2024/01/24 11:31:42;;;;;;;23.23;15.55;;;4.90;99.90;;;;;;4977036;28;20121;-69
2024/01/24 11:34:11;;;;;;;43.00;24.13;;;5.00;99.90;;;;;;4980829;28;20083;-74
2024/01/24 11:36:47;;;;;;;30.63;15.43;;;5.00;99.90;;;;;;4976414;28;20084;-70
2024/01/24 11:39:37;;;;;;;34.33;21.85;;;5.00;99.90;;;;;;4980496;28;20048;-74
2024/01/24 11:42:42;;;;;;;30.77;21.75;;;5.10;99.90;;;;;;4974937;28;20045;-73
2024/01/24 11:45:20;;;;;;;28.10;17.90;;;5.00;99.90;;;;;;4924281;28;20027;-74
2024/01/24 11:47:46;;;;;;;21.77;13.52;;;5.00;99.90;;;;;;4975498;28;20172;-74
2024/01/24 11:50:12;;;;;;;14.98;11.30;;;4.90;99.90;;;;;;4981640;28;20038;-73
2024/01/24 11:52:39;;;;;;;20.25;15.02;;;5.00;99.90;;;;;;4985209;28;20429;-73
2024/01/24 11:55:06;;;;;;;15.50;10.43;;;5.00;99.90;;;;;;4983227;28;20323;-73
2024/01/24 11:57:31;;;;;;;17.10;12.30;;;4.90;99.90;;;;;;4991296;28;20672;-74
2024/01/24 11:59:57;;;;;;;16.67;11.88;;;4.80;99.90;;;;;;4996815;28;20044;-74
2024/01/24 12:02:25;;;;;;;16.45;12.82;;;4.80;99.90;;;;;;4986721;28;20046;-74
2024/01/24 12:04:52;;;;;;;17.75;11.45;;;4.80;99.90;;;;;;4982920;28;20342;-73
2024/01/24 12:07:19;;;;;;;10.98;8.25;;;4.80;99.90;;;;;;4979095;28;20037;-73
2024/01/24 12:09:45;;;;;;;15.27;8.95;;;4.80;99.90;;;;;;4986130;28;20353;-74
2024/01/24 12:12:12;;;;;;;19.85;14.73;;;4.80;99.90;;;;;;4984413;28;20034;-72
2024/01/24 12:14:40;;;;;;;14.25;10.35;;;4.70;99.90;;;;;;4977699;28;20465;-73
2024/01/24 12:17:06;;;;;;;24.17;17.02;;;4.80;99.90;;;;;;4983486;28;20064;-73
2024/01/24 12:19:33;;;;;;;20.77;17.83;;;4.80;99.90;;;;;;4963477;28;20109;-74
2024/01/24 12:21:59;;;;;;;14.73;11.18;;;4.90;99.90;;;;;;4975897;28;20049;-75
2024/01/24 12:24:24;;;;;;;13.13;9.90;;;4.90;99.90;;;;;;4984869;28;20045;-76
2024/01/24 12:26:50;;;;;;;10.90;8.85;;;4.90;99.90;;;;;;4983426;28;20080;-75
2024/01/24 12:29:16;;;;;;;13.02;7.95;;;4.90;99.90;;;;;;4979659;28;20085;-74
2024/01/24 12:31:45;;;;;;;10.40;8.38;;;4.80;99.90;;;;;;4986208;28;20609;-75
2024/01/24 12:34:11;;;;;;;14.13;11.40;;;4.80;99.90;;;;;;4981672;28;21400;-75
2024/01/24 12:36:37;;;;;;;12.40;8.73;;;4.80;99.90;;;;;;4983182;28;20703;-74
2024/01/24 12:39:05;;;;;;;12.85;9.10;;;4.70;99.90;;;;;;4986157;28;20033;-74
2024/01/24 12:41:31;;;;;;;11.05;7.63;;;4.70;99.90;;;;;;4981675;28;20710;-74